sensor_id;sensor_type;location;lat;lon;timestamp;P1;durP1;ratioP1;P2;durP2;ratioP2
75112;SDS011;63692;47.338;8.520;2022-12-10T16:30:46;25.88;;;14.57;;
75112;SDS011;63692;47.338;8.520;2022-12-10T16:33:20;27.35;;;14.75;;
75112;SDS011;63692;47.338;8.520;2022-12-10T16:35:47;25.63;;;14.40;;
75112;SDS011;63692;47.338;8.520;2022-12-10T16:38:15;24.88;;;13.88;;
75112;SDS011;63692;47.338;8.520;2022-12-10T16:45:41;27.67;;;15.30;;
75112;SDS011;63692;47.338;8.520;2022-12-10T16:48:08;28.45;;;13.95;;
75112;SDS011;63692;47.338;8.520;2022-12-10T16:50:33;26.05;;;13.85;;
75112;SDS011;63692;47.338;8.520;2022-12-10T16:53:01;26.08;;;14.57;;
75112;SDS011;63692;47.338;8.520;2022-12-10T16:55:37;24.85;;;14.60;;
75112;SDS011;63692;47.338;8.520;2022-12-10T16:58:04;27.27;;;14.30;;
75112;SDS011;63692;47.338;8.520;2022-12-10T17:00:34;27.38;;;15.23;;
75112;SDS011;63692;47.338;8.520;2022-12-10T17:03:00;26.17;;;15.13;;
75112;SDS011;63692;47.338;8.520;2022-12-10T17:05:33;29.75;;;15.93;;
75112;SDS011;63692;47.338;8.520;2022-12-10T17:08:01;30.17;;;16.30;;
75112;SDS011;63692;47.338;8.520;2022-12-10T17:10:27;28.63;;;16.00;;
75112;SDS011;63692;47.338;8.520;2022-12-10T17:13:11;34.08;;;16.77;;
75112;SDS011;63692;47.338;8.520;2022-12-10T17:15:39;33.08;;;16.70;;
75112;SDS011;63692;47.338;8.520;2022-12-10T17:18:05;28.98;;;16.25;;
75112;SDS011;63692;47.338;8.520;2022-12-10T17:20:34;27.98;;;16.00;;
75112;SDS011;63692;47.338;8.520;2022-12-10T17:23:00;33.63;;;16.27;;
75112;SDS011;63692;47.338;8.520;2022-12-10T17:25:25;28.58;;;15.48;;
75112;SDS011;63692;47.338;8.520;2022-12-10T17:27:51;26.88;;;15.30;;
75112;SDS011;63692;47.338;8.520;2022-12-10T17:30:16;27.15;;;15.73;;
75112;SDS011;63692;47.338;8.520;2022-12-10T17:32:42;30.30;;;15.18;;
75112;SDS011;63692;47.338;8.520;2022-12-10T17:35:08;29.00;;;15.68;;
75112;SDS011;63692;47.338;8.520;2022-12-10T17:37:35;25.88;;;15.35;;
75112;SDS011;63692;47.338;8.520;2022-12-10T17:40:22;24.88;;;13.68;;
75112;SDS011;63692;47.338;8.520;2022-12-10T17:42:47;20.60;;;12.73;;
75112;SDS011;63692;47.338;8.520;2022-12-10T17:47:44;22.92;;;12.77;;
75112;SDS011;63692;47.338;8.520;2022-12-10T17:50:21;24.50;;;13.68;;
75112;SDS011;63692;47.338;8.520;2022-12-10T17:52:55;25.35;;;14.00;;
75112;SDS011;63692;47.338;8.520;2022-12-10T17:55:23;33.83;;;14.27;;
75112;SDS011;63692;47.338;8.520;2022-12-10T17:57:49;25.98;;;14.40;;
75112;SDS011;63692;47.338;8.520;2022-12-10T18:00:16;25.02;;;14.30;;
75112;SDS011;63692;47.338;8.520;2022-12-10T18:02:44;26.42;;;14.07;;
75112;SDS011;63692;47.338;8.520;2022-12-10T18:05:09;23.85;;;13.43;;
75112;SDS011;63692;47.338;8.520;2022-12-10T18:07:35;29.55;;;15.68;;
75112;SDS011;63692;47.338;8.520;2022-12-10T18:10:01;26.05;;;14.38;;
75112;SDS011;63692;47.338;8.520;2022-12-10T18:12:28;26.38;;;15.05;;
75112;SDS011;63692;47.338;8.520;2022-12-10T18:14:53;31.27;;;16.17;;
75112;SDS011;63692;47.338;8.520;2022-12-10T18:17:19;30.85;;;16.65;;
75112;SDS011;63692;47.338;8.520;2022-12-10T18:19:45;29.45;;;16.75;;
75112;SDS011;63692;47.338;8.520;2022-12-10T18:22:10;31.50;;;17.00;;
75112;SDS011;63692;47.338;8.520;2022-12-10T18:24:36;29.45;;;16.58;;
75112;SDS011;63692;47.338;8.520;2022-12-10T18:27:02;28.70;;;16.00;;
75112;SDS011;63692;47.338;8.520;2022-12-10T18:29:27;29.05;;;15.88;;
75112;SDS011;63692;47.338;8.520;2022-12-10T18:31:53;26.52;;;15.52;;
75112;SDS011;63692;47.338;8.520;2022-12-10T18:34:19;26.98;;;15.05;;
75112;SDS011;63692;47.338;8.520;2022-12-10T18:36:46;23.80;;;14.68;;
75112;SDS011;63692;47.338;8.520;2022-12-10T18:39:19;26.90;;;15.90;;
75112;SDS011;63692;47.338;8.520;2022-12-10T18:41:48;26.55;;;15.25;;
75112;SDS011;63692;47.338;8.520;2022-12-10T18:44:14;30.83;;;16.13;;
75112;SDS011;63692;47.338;8.520;2022-12-10T18:46:41;26.88;;;15.20;;
75112;SDS011;63692;47.338;8.520;2022-12-10T18:49:10;28.42;;;15.88;;
75112;SDS011;63692;47.338;8.520;2022-12-10T18:51:39;30.52;;;16.88;;
75112;SDS011;63692;47.338;8.520;2022-12-10T18:54:05;27.27;;;15.02;;
75112;SDS011;63692;47.338;8.520;2022-12-10T18:56:31;24.55;;;14.05;;
75112;SDS011;63692;47.338;8.520;2022-12-10T18:58:57;24.67;;;15.00;;
75112;SDS011;63692;47.338;8.520;2022-12-10T19:01:23;27.20;;;14.60;;
75112;SDS011;63692;47.338;8.520;2022-12-10T19:03:51;24.98;;;14.18;;
75112;SDS011;63692;47.338;8.520;2022-12-10T19:06:21;26.33;;;15.10;;
75112;SDS011;63692;47.338;8.520;2022-12-10T19:08:53;24.83;;;14.60;;
75112;SDS011;63692;47.338;8.520;2022-12-10T19:11:20;28.38;;;15.93;;
75112;SDS011;63692;47.338;8.520;2022-12-10T19:13:47;28.90;;;16.38;;
75112;SDS011;63692;47.338;8.520;2022-12-10T19:18:44;28.67;;;16.80;;
75112;SDS011;63692;47.338;8.520;2022-12-10T19:23:38;31.02;;;18.45;;
75112;SDS011;63692;47.338;8.520;2022-12-10T19:28:34;33.08;;;18.75;;
75112;SDS011;63692;47.338;8.520;2022-12-10T19:31:00;30.67;;;17.63;;
75112;SDS011;63692;47.338;8.520;2022-12-10T19:33:26;33.95;;;19.30;;
75112;SDS011;63692;47.338;8.520;2022-12-10T19:35:51;33.63;;;19.17;;
75112;SDS011;63692;47.338;8.520;2022-12-10T19:38:17;34.08;;;20.33;;
75112;SDS011;63692;47.338;8.520;2022-12-10T19:40:42;34.08;;;18.92;;
75112;SDS011;63692;47.338;8.520;2022-12-10T19:43:08;31.58;;;18.13;;
75112;SDS011;63692;47.338;8.520;2022-12-10T19:45:34;33.42;;;19.25;;
75112;SDS011;63692;47.338;8.520;2022-12-10T19:48:00;35.78;;;19.50;;
75112;SDS011;63692;47.338;8.520;2022-12-10T19:50:27;39.50;;;20.23;;
75112;SDS011;63692;47.338;8.520;2022-12-10T19:52:55;36.28;;;19.95;;
75112;SDS011;63692;47.338;8.520;2022-12-10T19:55:23;36.38;;;19.38;;
75112;SDS011;63692;47.338;8.520;2022-12-10T19:57:48;34.55;;;19.13;;
75112;SDS011;63692;47.338;8.520;2022-12-10T20:00:16;32.00;;;18.67;;
75112;SDS011;63692;47.338;8.520;2022-12-10T20:02:44;37.53;;;21.77;;
75112;SDS011;63692;47.338;8.520;2022-12-10T20:05:11;35.53;;;20.10;;
75112;SDS011;63692;47.338;8.520;2022-12-10T20:07:37;38.63;;;20.75;;
75112;SDS011;63692;47.338;8.520;2022-12-10T20:10:03;36.83;;;21.48;;
75112;SDS011;63692;47.338;8.520;2022-12-10T20:12:29;35.38;;;20.05;;
75112;SDS011;63692;47.338;8.520;2022-12-10T20:14:55;35.35;;;19.65;;
75112;SDS011;63692;47.338;8.520;2022-12-10T20:17:20;31.75;;;19.13;;
75112;SDS011;63692;47.338;8.520;2022-12-10T20:19:49;32.03;;;19.15;;
75112;SDS011;63692;47.338;8.520;2022-12-10T20:22:15;33.95;;;20.15;;
75112;SDS011;63692;47.338;8.520;2022-12-10T20:24:42;34.95;;;20.02;;
75112;SDS011;63692;47.338;8.520;2022-12-10T20:27:12;37.25;;;20.52;;
75112;SDS011;63692;47.338;8.520;2022-12-10T20:29:38;30.52;;;18.27;;
75112;SDS011;63692;47.338;8.520;2022-12-10T20:32:04;32.00;;;19.42;;
75112;SDS011;63692;47.338;8.520;2022-12-10T20:34:31;33.90;;;19.40;;
75112;SDS011;63692;47.338;8.520;2022-12-10T20:36:57;33.20;;;19.58;;
75112;SDS011;63692;47.338;8.520;2022-12-10T20:39:30;33.65;;;19.38;;
75112;SDS011;63692;47.338;8.520;2022-12-10T20:41:57;31.10;;;18.55;;
75112;SDS011;63692;47.338;8.520;2022-12-10T20:44:23;34.67;;;18.63;;
75112;SDS011;63692;47.338;8.520;2022-12-10T20:46:50;33.95;;;19.08;;
75112;SDS011;63692;47.338;8.520;2022-12-10T20:49:17;33.85;;;19.02;;
75112;SDS011;63692;47.338;8.520;2022-12-10T20:51:44;29.15;;;17.75;;
75112;SDS011;63692;47.338;8.520;2022-12-10T20:54:11;30.70;;;17.42;;
75112;SDS011;63692;47.338;8.520;2022-12-10T20:56:36;31.52;;;17.73;;
75112;SDS011;63692;47.338;8.520;2022-12-10T20:59:02;32.25;;;16.70;;
75112;SDS011;63692;47.338;8.520;2022-12-10T21:01:29;26.35;;;14.75;;
75112;SDS011;63692;47.338;8.520;2022-12-10T21:03:55;26.48;;;15.32;;
75112;SDS011;63692;47.338;8.520;2022-12-10T21:06:22;28.75;;;16.58;;
75112;SDS011;63692;47.338;8.520;2022-12-10T21:08:51;32.20;;;17.73;;
75112;SDS011;63692;47.338;8.520;2022-12-10T21:11:17;29.90;;;17.17;;
75112;SDS011;63692;47.338;8.520;2022-12-10T21:13:44;28.23;;;15.90;;
75112;SDS011;63692;47.338;8.520;2022-12-10T21:16:11;27.73;;;16.13;;
75112;SDS011;63692;47.338;8.520;2022-12-10T21:18:42;27.15;;;16.15;;
75112;SDS011;63692;47.338;8.520;2022-12-10T21:21:10;27.00;;;16.80;;
75112;SDS011;63692;47.338;8.520;2022-12-10T21:23:37;30.25;;;16.67;;
75112;SDS011;63692;47.338;8.520;2022-12-10T21:26:02;28.02;;;16.58;;
75112;SDS011;63692;47.338;8.520;2022-12-10T21:28:28;27.98;;;16.52;;
75112;SDS011;63692;47.338;8.520;2022-12-10T21:30:54;30.55;;;16.02;;
75112;SDS011;63692;47.338;8.520;2022-12-10T21:33:20;25.48;;;15.65;;
75112;SDS011;63692;47.338;8.520;2022-12-10T21:35:48;24.20;;;14.80;;
75112;SDS011;63692;47.338;8.520;2022-12-10T21:38:19;25.80;;;15.10;;
75112;SDS011;63692;47.338;8.520;2022-12-10T21:40:45;27.20;;;14.63;;
75112;SDS011;63692;47.338;8.520;2022-12-10T21:43:12;27.65;;;15.18;;
75112;SDS011;63692;47.338;8.520;2022-12-10T21:45:49;27.58;;;15.10;;
75112;SDS011;63692;47.338;8.520;2022-12-10T21:50:46;25.98;;;14.30;;
75112;SDS011;63692;47.338;8.520;2022-12-10T21:53:22;26.63;;;15.48;;
75112;SDS011;63692;47.338;8.520;2022-12-10T21:55:48;25.70;;;15.52;;
75112;SDS011;63692;47.338;8.520;2022-12-10T21:58:13;30.67;;;17.23;;
75112;SDS011;63692;47.338;8.520;2022-12-10T22:00:39;30.75;;;17.95;;
75112;SDS011;63692;47.338;8.520;2022-12-10T22:03:04;29.40;;;18.17;;
75112;SDS011;63692;47.338;8.520;2022-12-10T22:05:30;31.92;;;17.38;;
75112;SDS011;63692;47.338;8.520;2022-12-10T22:07:56;28.92;;;16.67;;
